Time;durP1;ratioP1;P1;durP2;ratioP2;P2;SDS_P1;SDS_P2;PMS_P1;PMS_P2;Temp;Humidity;BMP_temperature;BMP_pressure;BME280_temperature;BME280_humidity;BME280_pressure;Samples;Min_cycle;Max_cycle;Signal;HPM_P1;HPM_P2
2021/11/13 00:00:32;;;;;;;;;;;9.60;99.90;;;;;;5028420;28;19913;-73
2021/11/13 00:02:57;;;;;;;;;;;9.70;99.90;;;;;;5035956;28;19913;-71
2021/11/13 00:05:24;;;;;;;;;;;9.70;99.90;;;;;;5033812;28;20012;-71
2021/11/13 00:07:49;;;;;;;;;;;9.70;99.90;;;;;;5029942;28;20225;-71
2021/11/13 00:10:16;;;;;;;;;;;9.70;99.90;;;;;;5028688;28;19913;-69
2021/11/13 00:12:42;;;;;;;;;;;9.70;99.90;;;;;;5026045;28;20302;-70
2021/11/13 00:15:09;;;;;;;;;;;9.70;99.90;;;;;;5030522;28;19913;-68
2021/11/13 00:17:35;;;;;;;;;;;9.80;99.90;;;;;;5028912;28;19967;-69
2021/11/13 00:20:00;;;;;;;;;;;9.80;99.90;;;;;;5031995;28;19924;-70
2021/11/13 00:22:27;;;;;;;;;;;9.90;99.90;;;;;;5039396;28;19944;-69
2021/11/13 00:24:52;;;;;;;;;;;9.90;99.90;;;;;;5030460;28;19936;-68
2021/11/13 00:27:18;;;;;;;;;;;10.00;99.90;;;;;;5031207;28;19913;-71
2021/11/13 00:29:43;;;;;;;;;;;10.00;99.90;;;;;;5034771;28;19913;-70
2021/11/13 00:32:09;;;;;;;;;;;10.00;99.90;;;;;;5034326;28;20004;-68
2021/11/13 00:34:34;;;;;;;;;;;10.00;99.90;;;;;;5027475;28;20590;-71
2021/11/13 00:36:59;;;;;;;;;;;10.00;99.90;;;;;;5031497;28;19932;-68
2021/11/13 00:39:25;;;;;;;;;;;10.00;99.90;;;;;;5037399;28;19921;-69
2021/11/13 00:41:51;;;;;;;;;;;10.00;99.90;;;;;;5040872;28;19917;-69
2021/11/13 00:44:16;;;;;;;;;;;10.00;99.90;;;;;;5041177;28;19910;-71
2021/11/13 00:46:42;;;;;;;;;;;10.10;99.90;;;;;;5044645;28;19956;-73
2021/11/13 00:49:08;;;;;;;;;;;10.10;99.90;;;;;;5043885;28;19952;-67
2021/11/13 00:51:34;;;;;;;;;;;10.20;99.90;;;;;;5048727;28;19909;-69
2021/11/13 00:54:00;;;;;;;;;;;10.20;99.90;;;;;;5042085;28;19909;-73
2021/11/13 00:56:26;;;;;;;;;;;10.20;99.90;;;;;;5052482;28;19913;-70
2021/11/13 00:58:51;;;;;;;;;;;10.20;99.90;;;;;;5040003;28;19975;-68
2021/11/13 01:01:17;;;;;;;;;;;10.30;99.90;;;;;;5037541;28;19973;-69
2021/11/13 01:03:43;;;;;;;;;;;10.30;99.90;;;;;;5037404;28;19921;-69
2021/11/13 01:06:08;;;;;;;;;;;10.30;99.90;;;;;;5031585;28;19913;-71
2021/11/13 01:08:34;;;;;;;;;;;10.30;99.90;;;;;;5039271;28;19921;-69
2021/11/13 01:11:00;;;;;;;;;;;10.30;99.90;;;;;;5033116;28;19994;-70
2021/11/13 01:13:26;;;;;;;;;;;10.30;99.90;;;;;;5027604;28;19917;-71
2021/11/13 01:15:52;;;;;;;;;;;10.30;99.90;;;;;;5035895;28;19909;-69
2021/11/13 01:18:17;;;;;;;;;;;10.30;99.90;;;;;;5023074;28;19914;-67
2021/11/13 01:20:43;;;;;;;;;;;10.40;99.90;;;;;;5039113;28;19991;-70
2021/11/13 01:23:08;;;;;;;;;;;10.30;99.90;;;;;;5033594;28;19909;-69
2021/11/13 01:25:34;;;;;;;;;;;10.40;99.90;;;;;;5034162;28;19990;-69
2021/11/13 01:27:59;;;;;;;;;;;10.40;99.90;;;;;;5029374;28;20404;-69
2021/11/13 01:30:25;;;;;;;;;;;10.30;99.90;;;;;;5030851;28;20201;-69
2021/11/13 01:32:51;;;;;;;;;;;10.30;99.90;;;;;;5029215;28;19951;-71
2021/11/13 01:35:18;;;;;;;;;;;10.30;99.90;;;;;;5023756;28;19925;-69
2021/11/13 01:37:44;;;;;;;;;;;10.40;99.90;;;;;;5018558;28;19924;-69
2021/11/13 01:40:12;;;;;;;;;;;10.40;99.90;;;;;;5030599;28;19909;-67
2021/11/13 01:42:37;;;;;;;;;;;10.40;99.90;;;;;;5031105;28;19945;-68
2021/11/13 01:45:04;;;;;;;;;;;10.40;99.90;;;;;;5019733;28;19952;-70
2021/11/13 01:47:30;;;;;;;;;;;10.50;99.90;;;;;;5029345;28;20286;-70
2021/11/13 01:49:55;;;;;;;;;;;10.50;99.90;;;;;;5027339;28;19909;-70
2021/11/13 01:52:21;;;;;;;;;;;10.50;99.90;;;;;;5031307;28;19913;-70
2021/11/13 01:54:46;;;;;;;;;;;10.50;99.90;;;;;;5028031;28;19952;-71
2021/11/13 01:57:20;;;;;;;;;;;10.50;99.90;;;;;;5043899;28;19909;-71
2021/11/13 01:59:46;;;;;;;;;;;10.50;99.90;;;;;;5030038;28;19916;-69
2021/11/13 02:02:11;;;;;;;;;;;10.50;99.90;;;;;;5048827;28;19917;-69
2021/11/13 02:04:36;;;;;;;;;;;10.60;99.90;;;;;;5051728;28;19909;-68
2021/11/13 02:07:03;;;;;;;;;;;10.60;99.90;;;;;;5051618;28;20033;-71
2021/11/13 02:09:28;;;;;;;;;;;10.70;99.90;;;;;;5041658;28;20003;-68
2021/11/13 02:11:54;;;;;;;;;;;10.70;99.90;;;;;;5047608;28;19917;-69
2021/11/13 02:14:20;;;;;;;;;;;10.70;99.90;;;;;;5039801;28;19913;-71
2021/11/13 02:16:45;;;;;;;;;;;10.80;99.90;;;;;;5022077;28;19919;-69
2021/11/13 02:19:11;;;;;;;;;;;10.80;99.90;;;;;;5033954;28;20421;-71
2021/11/13 02:21:36;;;;;;;;;;;10.70;99.90;;;;;;5030364;28;19959;-69
2021/11/13 02:24:02;;;;;;;;;;;10.80;99.90;;;;;;5028431;28;20373;-71
2021/11/13 02:26:28;;;;;;;;;;;10.80;99.90;;;;;;5031894;28;19909;-71
2021/11/13 02:28:55;;;;;;;;;;;10.80;99.90;;;;;;5029126;28;20373;-70
2021/11/13 02:31:30;;;;;;;;;;;10.80;99.90;;;;;;5029233;28;19913;-72
2021/11/13 02:33:55;;;;;;;;;;;10.80;99.90;;;;;;5029530;28;19913;-70
2021/11/13 02:36:21;;;;;;;;;;;10.80;99.90;;;;;;5037157;28;19913;-70
2021/11/13 02:38:47;;;;;;;;;;;10.90;99.90;;;;;;5034432;28;19921;-70
2021/11/13 02:41:14;;;;;;;;;;;10.90;99.90;;;;;;5023790;28;19975;-70
2021/11/13 02:43:40;;;;;;;;;;;10.80;99.90;;;;;;5030032;28;19913;-71
2021/11/13 02:46:06;;;;;;;;;;;10.90;99.90;;;;;;5022818;28;20004;-72
2021/11/13 02:48:32;;;;;;;;;;;10.90;99.90;;;;;;5028042;28;20335;-70
2021/11/13 02:50:58;;;;;;;;;;;10.80;99.90;;;;;;5043816;28;19909;-72
2021/11/13 02:53:25;;;;;;;;;;;10.80;99.90;;;;;;5021421;28;19967;-70
2021/11/13 02:55:52;;;;;;;;;;;10.80;99.90;;;;;;5018087;28;19921;-69
2021/11/13 02:58:19;;;;;;;;;;;10.80;99.90;;;;;;5026405;28;20258;-71
2021/11/13 03:00:46;;;;;;;;;;;10.90;99.90;;;;;;5021517;28;19917;-70
2021/11/13 03:03:19;;;;;;;;;;;10.90;99.90;;;;;;5015883;28;19917;-70
2021/11/13 03:05:46;;;;;;;;;;;10.90;99.90;;;;;;5049912;28;19909;-69
2021/11/13 03:08:11;;;;;;;;;;;10.90;99.90;;;;;;5048703;28;19944;-69
2021/11/13 03:10:37;;;;;;;;;;;10.90;99.90;;;;;;5027179;28;19914;-70
2021/11/13 03:13:03;;;;;;;;;;;10.90;99.90;;;;;;5028874;28;19920;-71
2021/11/13 03:15:28;;;;;;;;;;;11.00;99.90;;;;;;5026833;28;19919;-71
2021/11/13 03:17:55;;;;;;;;;;;10.90;99.90;;;;;;5028242;28;19910;-71
2021/11/13 03:20:22;;;;;;;;;;;10.90;99.90;;;;;;5048001;28;20011;-70
2021/11/13 03:22:48;;;;;;;;;;;11.00;99.90;;;;;;5049652;28;19921;-71
2021/11/13 03:25:18;;;;;;;;;;;11.00;99.90;;;;;;5034813;28;19940;-71
2021/11/13 03:27:46;;;;;;;;;;;11.00;99.90;;;;;;5032498;28;19913;-72
2021/11/13 03:30:13;;;;;;;;;;;11.00;99.90;;;;;;5034324;28;19920;-72
2021/11/13 03:32:39;;;;;;;;;;;11.00;99.90;;;;;;5028903;28;19917;-71
2021/11/13 03:35:05;;;;;;;;;;;11.10;99.90;;;;;;5042561;28;19920;-71
2021/11/13 03:37:31;;;;;;;;;;;11.10;99.90;;;;;;5027435;28;19909;-72
2021/11/13 03:39:56;;;;;;;;;;;11.10;99.90;;;;;;5025646;28;19917;-71
2021/11/13 03:42:24;;;;;;;;;;;11.10;99.90;;;;;;5018592;28;20552;-72
2021/11/13 03:44:50;;;;;;;;;;;11.10;99.90;;;;;;5017693;28;19956;-72
2021/11/13 03:47:16;;;;;;;;;;;11.10;99.90;;;;;;5027855;28;19989;-68
2021/11/13 03:49:41;;;;;;;;;;;11.10;99.90;;;;;;5030325;28;19920;-71
2021/11/13 03:52:07;;;;;;;;;;;11.00;99.90;;;;;;5038914;28;20334;-71
2021/11/13 03:54:33;;;;;;;;;;;11.10;99.90;;;;;;5037471;28;20376;-72
2021/11/13 03:56:59;;;;;;;;;;;11.10;99.90;;;;;;5037351;28;19962;-73
2021/11/13 03:59:26;;;;;;;;;;;11.10;99.90;;;;;;5030991;28;19913;-71
2021/11/13 04:01:52;;;;;;;;;;;11.10;99.90;;;;;;5023188;28;20689;-71
2021/11/13 04:04:17;;;;;;;;;;;11.10;99.90;;;;;;5027014;28;20003;-71
2021/11/13 04:06:43;;;;;;;;;;;11.20;99.90;;;;;;5037774;28;19995;-71
2021/11/13 04:09:08;;;;;;;;;;;11.30;99.90;;;;;;5044902;28;20013;-72
2021/11/13 04:11:34;;;;;;;;;;;11.30;99.90;;;;;;5041741;28;19917;-73
2021/11/13 04:13:59;;;;;;;;;;;11.30;99.90;;;;;;5018276;28;19952;-73
2021/11/13 04:16:25;;;;;;;;;;;11.40;99.90;;;;;;5022943;28;19909;-72
2021/11/13 04:18:51;;;;;;;;;;;11.40;99.90;;;;;;5018396;28;20467;-70
2021/11/13 04:21:17;;;;;;;;;;;11.40;99.90;;;;;;5027400;28;19975;-67
2021/11/13 04:23:44;;;;;;;;;;;11.40;99.90;;;;;;5023691;28;20427;-65
2021/11/13 04:26:09;;;;;;;;;;;11.40;99.90;;;;;;5029490;28;19974;-64
2021/11/13 04:28:35;;;;;;;;;;;11.30;99.90;;;;;;5033556;28;19917;-63
2021/11/13 04:31:00;;;;;;;;;;;11.30;99.90;;;;;;5022888;28;20459;-64
2021/11/13 04:33:27;;;;;;;;;;;11.30;99.90;;;;;;5021512;28;20297;-63
2021/11/13 04:38:37;;;;;;;;;;;11.10;99.90;;;;;;5026519;28;19939;-62
2021/11/13 04:41:04;;;;;;;;;;;11.00;99.90;;;;;;5042468;28;20304;-63
2021/11/13 04:43:29;;;;;;;;;;;11.10;99.90;;;;;;5029530;28;20250;-62
2021/11/13 04:45:55;;;;;;;;;;;11.20;99.90;;;;;;5032034;28;19963;-64
2021/11/13 04:48:20;;;;;;;;;;;11.20;99.90;;;;;;5040032;28;19914;-64
2021/11/13 04:50:45;;;;;;;;;;;11.10;99.90;;;;;;5038328;28;19923;-63
2021/11/13 04:53:11;;;;;;;;;;;11.20;99.90;;;;;;5041948;28;19913;-63
2021/11/13 04:55:37;;;;;;;;;;;11.20;99.90;;;;;;5035582;28;19909;-63
2021/11/13 04:58:03;;;;;;;;;;;11.20;99.90;;;;;;5040981;28;19975;-64
2021/11/13 05:00:29;;;;;;;;;;;11.30;99.90;;;;;;5030723;28;19920;-63
2021/11/13 05:02:56;;;;;;;;;;;11.30;99.90;;;;;;5020701;28;19998;-64
2021/11/13 05:05:21;;;;;;;;;;;11.40;99.90;;;;;;5054027;28;19966;-64
2021/11/13 05:07:47;;;;;;;;;;;11.50;99.90;;;;;;5047735;28;20020;-64
2021/11/13 05:10:13;;;;;;;;;;;11.50;99.90;;;;;;5033479;28;19917;-62
2021/11/13 05:12:38;;;;;;;;;;;11.40;99.90;;;;;;5036726;28;19913;-65
2021/11/13 05:15:04;;;;;;;;;;;11.50;99.90;;;;;;5020185;28;19916;-62
2021/11/13 05:17:30;;;;;;;;;;;11.50;99.90;;;;;;5015161;28;20437;-62
2021/11/13 05:19:55;;;;;;;;;;;11.50;99.90;;;;;;5023454;28;19917;-63
2021/11/13 05:22:21;;;;;;;;;;;11.50;99.90;;;;;;5023305;28;19961;-63
2021/11/13 05:24:46;;;;;;;;;;;11.50;99.90;;;;;;5024941;28;20137;-63
2021/11/13 05:27:12;;;;;;;;;;;11.50;99.90;;;;;;5027366;28;19962;-63
2021/11/13 05:29:38;;;;;;;;;;;11.50;99.90;;;;;;5015054;28;19913;-64
2021/11/13 05:32:04;;;;;;;;;;;11.40;99.90;;;;;;5033872;28;19913;-63
2021/11/13 05:34:29;;;;;;;;;;;11.30;99.90;;;;;;5043465;28;19909;-64
2021/11/13 05:36:55;;;;;;;;;;;11.30;99.90;;;;;;5041265;28;20361;-63
2021/11/13 05:39:20;;;;;;;;;;;11.30;99.90;;;;;;5017648;28;20352;-63
2021/11/13 05:41:46;;;;;;;;;;;11.40;99.90;;;;;;5039630;28;20035;-63
2021/11/13 05:44:11;;;;;;;;;;;11.50;99.90;;;;;;5024949;28;19924;-63
2021/11/13 05:46:36;;;;;;;;;;;11.60;99.90;;;;;;5031882;28;19913;-63
2021/11/13 05:49:02;;;;;;;;;;;11.70;99.90;;;;;;5035799;28;19917;-64
2021/11/13 05:51:28;;;;;;;;;;;11.80;99.90;;;;;;5026285;28;20008;-64
2021/11/13 05:53:53;;;;;;;;;;;11.80;99.90;;;;;;5029268;28;20280;-64
2021/11/13 05:56:18;;;;;;;;;;;11.70;99.90;;;;;;5034752;28;19967;-64
2021/11/13 05:58:44;;;;;;;;;;;11.70;99.90;;;;;;5026516;28;20005;-64
2021/11/13 06:01:09;;;;;;;;;;;11.70;99.90;;;;;;5033537;28;20228;-65
2021/11/13 06:03:35;;;;;;;;;;;11.80;99.90;;;;;;5020775;28;19913;-64
2021/11/13 06:06:00;;;;;;;;;;;11.80;99.90;;;;;;5040599;28;20439;-64
2021/11/13 06:08:26;;;;;;;;;;;11.80;99.90;;;;;;5051096;28;19916;-64
2021/11/13 06:10:51;;;;;;;;;;;11.90;99.90;;;;;;5049139;28;20289;-64
2021/11/13 06:13:17;;;;;;;;;;;11.80;99.90;;;;;;5042536;28;19960;-62
2021/11/13 06:15:42;;;;;;;;;;;11.80;99.90;;;;;;5041008;28;19928;-63
2021/11/13 06:18:08;;;;;;;;;;;11.80;99.90;;;;;;5034566;28;19964;-67
2021/11/13 06:20:34;;;;;;;;;;;11.80;99.90;;;;;;5032079;28;19923;-66
2021/11/13 06:22:59;;;;;;;;;;;11.80;99.90;;;;;;5031132;28;19917;-67
2021/11/13 06:25:25;;;;;;;;;;;11.80;99.90;;;;;;5031676;28;19913;-67
2021/11/13 06:27:51;;;;;;;;;;;11.90;99.90;;;;;;5033303;28;19913;-68
2021/11/13 06:30:17;;;;;;;;;;;11.80;99.90;;;;;;5033199;28;19920;-68
2021/11/13 06:32:43;;;;;;;;;;;11.90;99.90;;;;;;5037544;28;19920;-63
2021/11/13 06:35:09;;;;;;;;;;;11.70;99.90;;;;;;5029132;28;20413;-63
2021/11/13 06:37:35;;;;;;;;;;;11.70;99.90;;;;;;5031011;28;19936;-69
2021/11/13 06:40:00;;;;;;;;;;;11.80;99.90;;;;;;5031264;28;20370;-63
2021/11/13 06:42:26;;;;;;;;;;;11.80;99.90;;;;;;5027489;28;19955;-64
2021/11/13 06:44:51;;;;;;;;;;;11.80;99.90;;;;;;5030079;28;20371;-64
2021/11/13 06:47:17;;;;;;;;;;;11.60;99.90;;;;;;5031300;28;19916;-65
2021/11/13 06:49:42;;;;;;;;;;;11.70;99.90;;;;;;5037856;28;19970;-68
2021/11/13 06:52:08;;;;;;;;;;;11.70;99.90;;;;;;5037192;28;20284;-69
2021/11/13 06:54:34;;;;;;;;;;;11.70;99.90;;;;;;5037507;28;19940;-70
2021/11/13 06:56:59;;;;;;;;;;;11.60;99.90;;;;;;5031423;28;19935;-70
2021/11/13 06:59:25;;;;;;;;;;;11.70;99.90;;;;;;5032979;28;19914;-71
2021/11/13 07:01:50;;;;;;;;;;;11.70;99.90;;;;;;5044339;28;20029;-70
2021/11/13 07:04:16;;;;;;;;;;;11.70;99.90;;;;;;5048170;28;19908;-70
2021/11/13 07:06:41;;;;;;;;;;;11.80;99.90;;;;;;5030360;28;19981;-69
2021/11/13 07:09:07;;;;;;;;;;;11.80;99.90;;;;;;5036300;28;19913;-71
2021/11/13 07:11:32;;;;;;;;;;;11.70;99.90;;;;;;5034289;28;19952;-70
2021/11/13 07:13:58;;;;;;;;;;;11.70;99.90;;;;;;5022653;28;19914;-72
2021/11/13 07:16:23;;;;;;;;;;;11.80;99.90;;;;;;5010085;28;19913;-69
2021/11/13 07:18:49;;;;;;;;;;;11.80;99.90;;;;;;5026568;28;20053;-68
2021/11/13 07:21:14;;;;;;;;;;;11.90;99.90;;;;;;5033613;28;19924;-71
2021/11/13 07:23:40;;;;;;;;;;;11.80;99.90;;;;;;5040123;28;19947;-70
2021/11/13 07:26:11;;;;;;;;;;;11.80;99.90;;;;;;5036058;28;19996;-72
2021/11/13 07:31:02;;;;;;;;;;;11.90;99.90;;;;;;5027854;28;19915;-69
2021/11/13 07:33:28;;;;;;;;;;;11.90;99.90;;;;;;5028286;28;19967;-70
2021/11/13 07:35:53;;;;;;;;;;;12.00;99.90;;;;;;5018184;28;19910;-67
2021/11/13 07:38:19;;;;;;;;;;;12.00;99.90;;;;;;5040132;28;19952;-70
2021/11/13 07:40:44;;;;;;;;;;;12.00;99.90;;;;;;5025806;28;20003;-69
2021/11/13 07:43:10;;;;;;;;;;;11.90;99.90;;;;;;5027243;28;19954;-64
2021/11/13 07:45:36;;;;;;;;;;;11.80;99.90;;;;;;5025989;28;19994;-64
2021/11/13 07:48:04;;;;;;;;;;;11.90;99.90;;;;;;5023762;28;19924;-64
2021/11/13 07:50:30;;;;;;;;;;;11.80;99.90;;;;;;5014589;28;20042;-64
2021/11/13 07:52:56;;;;;;;;;;;11.80;99.90;;;;;;5027500;28;19914;-64
2021/11/13 07:55:21;;;;;;;;;;;11.90;99.90;;;;;;5025760;28;19936;-64
2021/11/13 07:57:47;;;;;;;;;;;11.90;99.90;;;;;;5032548;28;19913;-64
2021/11/13 08:00:14;;;;;;;;;;;11.90;99.90;;;;;;5033915;28;20409;-65
2021/11/13 08:02:40;;;;;;;;;;;12.00;99.90;;;;;;5038884;28;19917;-65
2021/11/13 08:05:06;;;;;;;;;;;12.10;99.90;;;;;;5015774;28;20411;-65
2021/11/13 08:07:31;;;;;;;;;;;12.10;99.90;;;;;;5032109;28;20410;-69
2021/11/13 08:09:57;;;;;;;;;;;12.10;99.90;;;;;;5032835;28;20008;-71
2021/11/13 08:12:22;;;;;;;;;;;12.00;99.90;;;;;;5043036;28;19912;-70
2021/11/13 08:14:47;;;;;;;;;;;12.00;99.90;;;;;;5041743;28;19912;-70
2021/11/13 08:17:13;;;;;;;;;;;12.00;99.90;;;;;;5027565;28;19924;-70
2021/11/13 08:19:38;;;;;;;;;;;12.10;99.90;;;;;;5041833;28;19913;-70
2021/11/13 08:22:04;;;;;;;;;;;12.20;99.90;;;;;;5026740;28;20521;-69
2021/11/13 08:24:30;;;;;;;;;;;12.20;99.90;;;;;;5036334;28;19920;-69
2021/11/13 08:26:55;;;;;;;;;;;12.20;99.90;;;;;;5017047;28;19913;-70
2021/11/13 08:29:21;;;;;;;;;;;12.30;99.90;;;;;;5048824;28;20003;-69
2021/11/13 08:31:46;;;;;;;;;;;12.10;99.90;;;;;;5038098;28;19944;-70
2021/11/13 08:34:12;;;;;;;;;;;12.10;99.90;;;;;;5041182;28;19920;-69
2021/11/13 08:36:37;;;;;;;;;;;12.10;99.90;;;;;;5041915;28;19923;-70
2021/11/13 08:39:04;;;;;;;;;;;12.10;99.90;;;;;;5043333;28;19916;-70
2021/11/13 08:41:29;;;;;;;;;;;12.20;99.90;;;;;;5042832;28;19917;-71
2021/11/13 08:43:55;;;;;;;;;;;12.20;99.90;;;;;;5043649;28;19912;-70
2021/11/13 08:46:20;;;;;;;;;;;12.30;99.90;;;;;;5039163;28;20373;-71
2021/11/13 08:48:46;;;;;;;;;;;12.30;99.90;;;;;;5046270;28;19944;-71
2021/11/13 08:51:11;;;;;;;;;;;12.40;99.90;;;;;;5048381;28;20337;-70
2021/11/13 08:53:37;;;;;;;;;;;12.60;99.90;;;;;;5041807;28;20452;-72
2021/11/13 08:56:02;;;;;;;;;;;12.50;99.90;;;;;;5044470;28;19916;-70
2021/11/13 08:58:28;;;;;;;;;;;12.50;99.90;;;;;;5046638;28;20003;-71
2021/11/13 09:00:59;;;;;;;;;;;12.60;99.90;;;;;;5045224;28;19917;-70
2021/11/13 09:03:27;;;;;;;;;;;12.60;99.90;;;;;;5048010;28;19909;-71
2021/11/13 09:05:53;;;;;;;;;;;12.50;99.90;;;;;;5048193;28;19917;-70
2021/11/13 09:08:20;;;;;;;;;;;12.50;99.90;;;;;;5039848;28;19909;-71
2021/11/13 09:10:46;;;;;;;;;;;12.50;99.90;;;;;;5040611;28;19955;-70
2021/11/13 09:13:12;;;;;;;;;;;12.40;99.90;;;;;;5047638;28;19909;-71
2021/11/13 09:15:38;;;;;;;;;;;12.40;99.90;;;;;;5043696;28;20359;-70
2021/11/13 09:18:04;;;;;;;;;;;12.60;99.90;;;;;;5033594;28;20305;-72
2021/11/13 09:20:31;;;;;;;;;;;12.60;99.90;;;;;;5043226;28;19919;-71
2021/11/13 09:22:57;;;;;;;;;;;12.50;99.90;;;;;;5050453;28;19913;-72
2021/11/13 09:25:24;;;;;;;;;;;12.60;99.90;;;;;;5042139;28;19923;-70
2021/11/13 09:27:49;;;;;;;;;;;12.70;99.90;;;;;;5027005;28;19920;-71
2021/11/13 09:30:20;;;;;;;;;;;12.60;99.90;;;;;;5044916;28;19913;-70
2021/11/13 09:32:47;;;;;;;;;;;12.60;99.90;;;;;;5042629;28;19963;-72
2021/11/13 09:35:13;;;;;;;;;;;12.80;99.90;;;;;;5046855;28;19989;-70
2021/11/13 09:37:38;;;;;;;;;;;12.80;99.90;;;;;;5048983;28;19901;-70
2021/11/13 09:40:05;;;;;;;;;;;12.80;99.90;;;;;;5046133;28;20399;-69
2021/11/13 09:42:31;;;;;;;;;;;12.80;99.90;;;;;;5033262;28;19921;-72
2021/11/13 09:44:57;;;;;;;;;;;12.60;99.90;;;;;;5030999;28;20610;-70
2021/11/13 09:47:24;;;;;;;;;;;12.60;99.90;;;;;;5035560;28;19928;-71
2021/11/13 09:49:49;;;;;;;;;;;12.60;99.90;;;;;;5038952;28;20246;-71
2021/11/13 09:52:15;;;;;;;;;;;12.60;99.90;;;;;;5044531;28;19921;-70
2021/11/13 09:54:41;;;;;;;;;;;12.50;99.90;;;;;;5043319;28;19936;-71
2021/11/13 09:57:07;;;;;;;;;;;12.40;99.90;;;;;;5043348;28;19967;-70
2021/11/13 09:59:33;;;;;;;;;;;12.40;99.90;;;;;;5034046;28;20213;-71
2021/11/13 10:01:59;;;;;;;;;;;12.30;99.90;;;;;;5046664;28;20276;-72
2021/11/13 10:04:24;;;;;;;;;;;12.30;99.90;;;;;;5034721;28;19963;-73
2021/11/13 10:06:50;;;;;;;;;;;12.40;99.90;;;;;;5028545;28;19920;-72
2021/11/13 10:09:16;;;;;;;;;;;12.30;99.90;;;;;;5043718;28;19955;-71
2021/11/13 10:11:48;;;;;;;;;;;12.30;99.90;;;;;;5027813;28;20353;-70
2021/11/13 10:14:14;;;;;;;;;;;12.20;99.90;;;;;;5030657;28;19983;-72
2021/11/13 10:16:40;;;;;;;;;;;12.30;99.90;;;;;;5038079;28;20381;-72
2021/11/13 10:19:08;;;;;;;;;;;12.40;99.90;;;;;;5029735;28;20011;-72
2021/11/13 10:21:35;;;;;;;;;;;12.50;99.90;;;;;;5029604;28;20281;-74
2021/11/13 10:24:09;;;;;;;;;;;12.70;99.90;;;;;;5030699;28;19913;-71
2021/11/13 10:26:39;;;;;;;;;;;12.90;99.90;;;;;;5031171;28;20066;-72
2021/11/13 10:29:07;;;;;;;;;;;13.10;99.90;;;;;;5038377;28;19909;-71
2021/11/13 10:31:40;;;;;;;;;;;13.10;99.90;;;;;;5019644;28;19920;-72
2021/11/13 10:34:09;;;;;;;;;;;12.90;99.90;;;;;;5032001;28;20311;-72
2021/11/13 10:36:37;;;;;;;;;;;13.00;99.90;;;;;;5044675;28;19921;-71
2021/11/13 10:39:05;;;;;;;;;;;13.20;99.90;;;;;;5066935;28;19912;-70
2021/11/13 10:41:30;;;;;;;;;;;13.10;99.90;;;;;;5054774;28;19925;-71
2021/11/13 10:43:56;;;;;;;;;;;13.10;99.90;;;;;;5061860;28;19927;-67
2021/11/13 10:46:22;;;;;;;;;;;13.10;99.90;;;;;;5042111;28;19917;-70
2021/11/13 10:48:54;;;;;;;;;;;13.10;99.90;;;;;;5032703;28;19919;-69
2021/11/13 10:51:22;;;;;;;;;;;13.10;99.90;;;;;;5031717;28;20190;-72
2021/11/13 10:53:48;;;;;;;;;;;13.10;99.90;;;;;;5040242;28;19908;-72
2021/11/13 10:56:15;;;;;;;;;;;13.10;99.90;;;;;;5030381;28;19924;-71
2021/11/13 10:58:42;;;;;;;;;;;12.80;99.90;;;;;;5041100;28;19967;-71
2021/11/13 11:01:10;;;;;;;;;;;12.80;99.90;;;;;;5039374;28;19944;-70
2021/11/13 11:03:37;;;;;;;;;;;12.80;99.90;;;;;;5041458;28;20400;-71
2021/11/13 11:06:03;;;;;;;;;;;12.90;99.90;;;;;;5029912;28;19913;-70
2021/11/13 11:08:30;;;;;;;;;;;13.00;99.90;;;;;;5035847;28;19914;-72
2021/11/13 11:10:55;;;;;;;;;;;12.90;99.90;;;;;;5035874;28;19960;-71
2021/11/13 11:13:41;;;;;;;;;;;12.90;99.90;;;;;;5045733;28;19966;-70
2021/11/13 11:16:23;;;;;;;;;;;12.90;99.90;;;;;;5049463;28;19995;-70
2021/11/13 11:19:00;;;;;;;;;;;12.90;99.90;;;;;;5029814;28;19939;-72
2021/11/13 11:21:44;;;;;;;;;;;13.00;99.90;;;;;;5033317;28;20395;-72
2021/11/13 11:24:14;;;;;;;;;;;13.00;99.90;;;;;;5038531;28;20281;-71
2021/11/13 11:26:41;;;;;;;;;;;13.00;99.90;;;;;;5034517;28;19917;-72
2021/11/13 11:29:06;;;;;;;;;;;13.00;99.90;;;;;;5024035;28;20174;-72
2021/11/13 11:31:40;;;;;;;;;;;13.20;99.90;;;;;;5037077;28;19935;-71
2021/11/13 11:34:06;;;;;;;;;;;13.40;99.90;;;;;;5056015;28;20258;-72
2021/11/13 11:36:32;;;;;;;;;;;13.40;99.90;;;;;;5039049;28;19972;-71
2021/11/13 11:38:58;;;;;;;;;;;13.50;99.90;;;;;;5036682;22;19964;-62
2021/11/13 11:41:23;;;;;;;;;;;13.60;99.90;;;;;;5022922;28;19928;-62
2021/11/13 11:43:49;;;;;;;;;;;13.60;99.90;;;;;;5015897;28;19913;-61
2021/11/13 11:46:15;;;;;;;;;;;13.70;99.90;;;;;;5019782;28;20286;-62
2021/11/13 11:48:40;;;;;;;;;;;13.60;99.90;;;;;;5025498;28;20278;-63
2021/11/13 11:51:06;;;;;;;;;;;13.50;99.90;;;;;;5020232;28;20075;-62
2021/11/13 11:53:31;;;;;;;;;;;13.40;99.90;;;;;;5025355;28;20257;-62
2021/11/13 11:55:57;;;;;;;;;;;13.40;99.90;;;;;;5025402;28;19971;-63
2021/11/13 11:58:23;;;;;;;;;;;13.50;99.90;;;;;;5025962;28;19913;-62
2021/11/13 12:00:50;;;;;;;;;;;13.60;99.90;;;;;;5024806;28;19921;-62
2021/11/13 12:03:21;;;;;;;;;;;13.60;99.90;;;;;;5024202;28;19918;-61
2021/11/13 12:05:49;;;;;;;;;;;13.50;99.90;;;;;;5023738;28;19917;-61
2021/11/13 12:08:33;;;;;;;;;;;13.30;99.90;;;;;;5025588;28;20305;-63
2021/11/13 12:11:15;;;;;;;;;;;13.10;99.90;;;;;;5023906;28;19920;-63
2021/11/13 12:13:41;;;;;;;;;;;13.20;99.90;;;;;;5027823;28;19913;-63
2021/11/13 12:16:06;;;;;;;;;;;13.20;99.90;;;;;;5024032;28;19917;-62
2021/11/13 12:18:33;;;;;;;;;;;13.10;99.90;;;;;;5024802;28;20280;-62
2021/11/13 12:20:58;;;;;;;;;;;13.20;99.90;;;;;;5024539;28;19929;-62
2021/11/13 12:23:24;;;;;;;;;;;13.20;99.90;;;;;;5024292;28;19968;-63
2021/11/13 12:25:58;;;;;;;;;;;13.70;99.90;;;;;;5026101;28;20106;-63
2021/11/13 12:28:24;;;;;;;;;;;14.00;99.90;;;;;;5027117;28;20136;-62
2021/11/13 12:30:55;;;;;;;;;;;14.10;99.90;;;;;;5025469;28;19920;-63
2021/11/13 12:33:26;;;;;;;;;;;14.20;99.90;;;;;;5025556;28;19920;-64
2021/11/13 12:35:52;;;;;;;;;;;14.20;99.90;;;;;;5024310;28;19917;-62
2021/11/13 12:38:30;;;;;;;;;;;14.00;99.90;;;;;;5028968;28;19917;-64
2021/11/13 12:41:12;;;;;;;;;;;13.80;99.90;;;;;;5031285;28;20411;-63
2021/11/13 12:43:50;;;;;;;;;;;13.60;99.90;;;;;;5029522;28;19913;-62
2021/11/13 12:46:27;;;;;;;;;;;13.50;99.90;;;;;;5024231;28;19919;-63
2021/11/13 12:49:11;;;;;;;;;;;13.50;99.90;;;;;;5026577;28;20370;-63
2021/11/13 12:51:37;;;;;;;;;;;13.50;99.90;;;;;;5023150;28;20272;-63
2021/11/13 12:54:14;;;;;;;;;;;13.50;99.90;;;;;;5022440;28;19917;-62
2021/11/13 12:56:42;;;;;;;;;;;13.70;99.90;;;;;;5029131;28;19917;-61
2021/11/13 12:59:13;;;;;;;;;;;13.70;99.90;;;;;;5026963;28;20381;-64
2021/11/13 13:01:45;;;;;;;;;;;13.70;99.90;;;;;;5028528;28;19913;-63
2021/11/13 13:04:11;;;;;;;;;;;13.70;99.90;;;;;;5027726;28;19913;-61
2021/11/13 13:06:43;;;;;;;;;;;13.60;99.90;;;;;;5024738;28;19921;-63
2021/11/13 13:09:08;;;;;;;;;;;13.50;99.90;;;;;;5026937;28;19914;-64
2021/11/13 13:11:34;;;;;;;;;;;13.60;99.90;;;;;;5021624;28;19924;-64
2021/11/13 13:13:59;;;;;;;;;;;13.60;99.90;;;;;;5026784;28;19920;-63
2021/11/13 13:16:28;;;;;;;;;;;13.50;99.90;;;;;;5025899;28;20363;-62
2021/11/13 13:19:00;;;;;;;;;;;13.50;99.90;;;;;;5026666;28;19967;-62
2021/11/13 13:21:25;;;;;;;;;;;13.30;99.90;;;;;;5028614;28;19917;-65
2021/11/13 13:23:50;;;;;;;;;;;13.10;99.90;;;;;;5029496;28;19916;-62
2021/11/13 13:26:18;;;;;;;;;;;13.10;99.90;;;;;;5025994;28;19917;-63
2021/11/13 13:28:43;;;;;;;;;;;13.00;99.90;;;;;;5029623;28;19913;-63
2021/11/13 13:31:10;;;;;;;;;;;13.00;99.90;;;;;;5028692;28;20028;-62
2021/11/13 13:33:37;;;;;;;;;;;12.90;99.90;;;;;;5029409;28;20443;-61
2021/11/13 13:36:02;;;;;;;;;;;12.90;99.90;;;;;;5017408;28;20016;-62
2021/11/13 13:38:28;;;;;;;;;;;12.90;99.90;;;;;;5029960;28;20429;-64
2021/11/13 13:40:55;;;;;;;;;;;12.90;99.90;;;;;;5029901;28;19923;-64
2021/11/13 13:43:27;;;;;;;;;;;12.90;99.90;;;;;;5025953;28;19941;-62
2021/11/13 13:46:02;;;;;;;;;;;12.90;99.90;;;;;;5019700;28;19914;-62
2021/11/13 13:48:30;;;;;;;;;;;12.90;99.90;;;;;;5031299;28;19957;-62
2021/11/13 13:50:56;;;;;;;;;;;12.90;99.90;;;;;;5024080;28;19913;-63
2021/11/13 13:53:22;;;;;;;;;;;12.90;99.90;;;;;;5029199;28;19909;-62
2021/11/13 13:55:48;;;;;;;;;;;12.90;99.90;;;;;;5028638;28;19947;-63
2021/11/13 13:58:14;;;;;;;;;;;12.90;99.90;;;;;;5029712;28;20626;-62
2021/11/13 14:00:40;;;;;;;;;;;12.90;99.90;;;;;;5029230;28;20023;-63
2021/11/13 14:03:06;;;;;;;;;;;12.80;99.90;;;;;;5017366;28;20020;-63
2021/11/13 14:05:33;;;;;;;;;;;12.90;99.90;;;;;;5026975;28;20004;-62
2021/11/13 14:08:06;;;;;;;;;;;12.90;99.90;;;;;;5030086;28;19916;-63
2021/11/13 14:10:40;;;;;;;;;;;12.80;99.90;;;;;;5031097;28;19921;-63
2021/11/13 14:13:05;;;;;;;;;;;12.90;99.90;;;;;;5020785;28;19913;-62
2021/11/13 14:15:32;;;;;;;;;;;12.80;99.90;;;;;;5026074;28;20358;-62
2021/11/13 14:18:17;;;;;;;;;;;12.90;99.90;;;;;;5026535;28;19913;-63
2021/11/13 14:20:44;;;;;;;;;;;12.90;99.90;;;;;;5027626;28;19921;-63